High Rock, North Carolina
Current Conditions -  °F | °C
As of 2:15 AM on Friday 19 Dec 2014 (Local Time) from KHBI Reporting Station
Overcast Overcast  
Wind Chill: 40°   Ceiling: 6000
Heat Index: 40°   Visibility: 10mi
Dew Point: 30°   Wind: 0mph
Humidity: 69%   Direction: NA
Pressure: 30.12"   Gusts: NA
Location:  35.6015°N, 80.0858°W
Report Text: KHBI 190715Z AUTO 00000KT 10SM OVC060 04/M01 A3012 RMK AO2 T00421010
Loading
Personal Weather Stations






























Interactive Weather Map New forecast layout! Learn more

10-Day Weather Forecast

Advertisements
Track Severe Weather on mobile